sensor_id;sensor_type;location;lat;lon;timestamp;temperature;humidity
22235;DHT22;11286;45.596;5.284;2022-07-24T00:00:51;22.80;1.00
22235;DHT22;11286;45.596;5.284;2022-07-24T00:03:17;22.70;1.00
22235;DHT22;11286;45.596;5.284;2022-07-24T00:05:43;22.50;1.00
22235;DHT22;11286;45.596;5.284;2022-07-24T00:08:08;22.40;1.00
22235;DHT22;11286;45.596;5.284;2022-07-24T00:10:34;22.50;1.00
22235;DHT22;11286;45.596;5.284;2022-07-24T00:13:00;22.50;1.00
22235;DHT22;11286;45.596;5.284;2022-07-24T00:15:26;22.50;1.00
22235;DHT22;11286;45.596;5.284;2022-07-24T00:17:51;22.50;1.00
22235;DHT22;11286;45.596;5.284;2022-07-24T00:20:17;22.40;1.00
22235;DHT22;11286;45.596;5.284;2022-07-24T00:22:43;22.20;1.00
22235;DHT22;11286;45.596;5.284;2022-07-24T00:25:08;22.10;1.00
22235;DHT22;11286;45.596;5.284;2022-07-24T00:27:34;22.20;1.00
22235;DHT22;11286;45.596;5.284;2022-07-24T00:30:00;22.40;1.00
22235;DHT22;11286;45.596;5.284;2022-07-24T00:32:26;22.40;1.00
22235;DHT22;11286;45.596;5.284;2022-07-24T00:34:51;22.40;1.00
22235;DHT22;11286;45.596;5.284;2022-07-24T00:37:17;22.40;1.00
22235;DHT22;11286;45.596;5.284;2022-07-24T00:39:43;22.30;1.00
22235;DHT22;11286;45.596;5.284;2022-07-24T00:42:10;22.30;1.00
22235;DHT22;11286;45.596;5.284;2022-07-24T00:44:36;22.30;1.00
22235;DHT22;11286;45.596;5.284;2022-07-24T00:47:02;22.10;1.00
22235;DHT22;11286;45.596;5.284;2022-07-24T00:49:27;22.10;1.00
22235;DHT22;11286;45.596;5.284;2022-07-24T00:51:54;22.00;1.00
22235;DHT22;11286;45.596;5.284;2022-07-24T00:54:21;22.00;1.00
22235;DHT22;11286;45.596;5.284;2022-07-24T00:56:50;21.90;1.00
22235;DHT22;11286;45.596;5.284;2022-07-24T00:59:16;21.90;1.00
22235;DHT22;11286;45.596;5.284;2022-07-24T01:01:44;21.80;1.00
22235;DHT22;11286;45.596;5.284;2022-07-24T01:04:09;21.90;1.00
22235;DHT22;11286;45.596;5.284;2022-07-24T01:06:35;21.90;1.00
22235;DHT22;11286;45.596;5.284;2022-07-24T01:09:02;21.90;1.00
22235;DHT22;11286;45.596;5.284;2022-07-24T01:11:28;21.90;1.00
22235;DHT22;11286;45.596;5.284;2022-07-24T01:13:54;21.70;1.00
22235;DHT22;11286;45.596;5.284;2022-07-24T01:16:20;21.70;1.00
22235;DHT22;11286;45.596;5.284;2022-07-24T01:18:46;21.60;1.00
22235;DHT22;11286;45.596;5.284;2022-07-24T01:21:12;21.40;1.00
22235;DHT22;11286;45.596;5.284;2022-07-24T01:23:37;21.50;1.00
22235;DHT22;11286;45.596;5.284;2022-07-24T01:26:06;21.60;1.00
22235;DHT22;11286;45.596;5.284;2022-07-24T01:28:32;21.60;1.00
22235;DHT22;11286;45.596;5.284;2022-07-24T01:30:58;21.60;1.00
22235;DHT22;11286;45.596;5.284;2022-07-24T01:33:24;21.60;1.00
22235;DHT22;11286;45.596;5.284;2022-07-24T01:35:49;21.70;1.00
22235;DHT22;11286;45.596;5.284;2022-07-24T01:38:17;21.60;1.00
22235;DHT22;11286;45.596;5.284;2022-07-24T01:40:42;21.60;1.00
22235;DHT22;11286;45.596;5.284;2022-07-24T01:43:08;21.60;1.00
22235;DHT22;11286;45.596;5.284;2022-07-24T01:45:34;21.60;1.00
22235;DHT22;11286;45.596;5.284;2022-07-24T01:47:59;21.50;1.00
22235;DHT22;11286;45.596;5.284;2022-07-24T01:50:25;21.50;1.00
22235;DHT22;11286;45.596;5.284;2022-07-24T01:52:51;21.40;1.00
22235;DHT22;11286;45.596;5.284;2022-07-24T01:55:19;21.40;1.00
22235;DHT22;11286;45.596;5.284;2022-07-24T01:57:44;21.30;1.00
22235;DHT22;11286;45.596;5.284;2022-07-24T02:00:10;21.20;1.00
22235;DHT22;11286;45.596;5.284;2022-07-24T02:02:40;21.20;1.00
22235;DHT22;11286;45.596;5.284;2022-07-24T02:05:06;21.30;1.00
22235;DHT22;11286;45.596;5.284;2022-07-24T02:07:32;21.20;1.00
22235;DHT22;11286;45.596;5.284;2022-07-24T02:09:58;21.10;1.00
22235;DHT22;11286;45.596;5.284;2022-07-24T02:12:23;21.20;1.00
22235;DHT22;11286;45.596;5.284;2022-07-24T02:14:49;21.20;1.00
22235;DHT22;11286;45.596;5.284;2022-07-24T02:17:15;21.20;1.00
22235;DHT22;11286;45.596;5.284;2022-07-24T02:19:40;21.00;1.00
22235;DHT22;11286;45.596;5.284;2022-07-24T02:22:07;21.00;1.00
22235;DHT22;11286;45.596;5.284;2022-07-24T02:24:32;20.90;1.00
22235;DHT22;11286;45.596;5.284;2022-07-24T02:26:58;20.90;1.00
22235;DHT22;11286;45.596;5.284;2022-07-24T02:29:23;20.80;1.00
22235;DHT22;11286;45.596;5.284;2022-07-24T02:31:49;20.80;1.00
22235;DHT22;11286;45.596;5.284;2022-07-24T02:34:15;20.70;1.00
22235;DHT22;11286;45.596;5.284;2022-07-24T02:36:40;20.60;1.00
22235;DHT22;11286;45.596;5.284;2022-07-24T02:39:06;20.50;1.00
22235;DHT22;11286;45.596;5.284;2022-07-24T02:41:31;20.50;1.00
22235;DHT22;11286;45.596;5.284;2022-07-24T02:43:58;20.40;1.00
22235;DHT22;11286;45.596;5.284;2022-07-24T02:46:24;20.70;1.00
22235;DHT22;11286;45.596;5.284;2022-07-24T02:48:49;20.70;1.00
22235;DHT22;11286;45.596;5.284;2022-07-24T02:51:15;20.70;1.00
22235;DHT22;11286;45.596;5.284;2022-07-24T02:53:40;20.40;1.00
22235;DHT22;11286;45.596;5.284;2022-07-24T02:56:06;20.50;1.00
22235;DHT22;11286;45.596;5.284;2022-07-24T02:58:32;20.50;1.00
22235;DHT22;11286;45.596;5.284;2022-07-24T03:00:58;20.40;1.00
22235;DHT22;11286;45.596;5.284;2022-07-24T03:03:24;20.20;1.00
22235;DHT22;11286;45.596;5.284;2022-07-24T03:05:50;20.40;1.00
22235;DHT22;11286;45.596;5.284;2022-07-24T03:08:16;20.50;1.00
22235;DHT22;11286;45.596;5.284;2022-07-24T03:10:42;20.50;1.00
22235;DHT22;11286;45.596;5.284;2022-07-24T03:13:07;20.30;1.00
22235;DHT22;11286;45.596;5.284;2022-07-24T03:15:33;20.40;1.00
22235;DHT22;11286;45.596;5.284;2022-07-24T03:17:59;20.50;1.00
22235;DHT22;11286;45.596;5.284;2022-07-24T03:20:26;20.50;1.00
22235;DHT22;11286;45.596;5.284;2022-07-24T03:22:52;20.60;1.00
22235;DHT22;11286;45.596;5.284;2022-07-24T03:25:19;20.70;1.00
22235;DHT22;11286;45.596;5.284;2022-07-24T03:27:44;20.60;1.00
22235;DHT22;11286;45.596;5.284;2022-07-24T03:30:12;20.60;1.00
22235;DHT22;11286;45.596;5.284;2022-07-24T03:32:38;20.60;1.00
22235;DHT22;11286;45.596;5.284;2022-07-24T03:35:04;20.60;1.00
22235;DHT22;11286;45.596;5.284;2022-07-24T03:37:30;20.40;1.00
22235;DHT22;11286;45.596;5.284;2022-07-24T03:39:56;20.20;1.00
22235;DHT22;11286;45.596;5.284;2022-07-24T03:42:21;19.90;1.00
22235;DHT22;11286;45.596;5.284;2022-07-24T03:44:47;19.80;1.00
22235;DHT22;11286;45.596;5.284;2022-07-24T03:47:12;19.80;1.00
22235;DHT22;11286;45.596;5.284;2022-07-24T03:49:38;20.00;1.00
22235;DHT22;11286;45.596;5.284;2022-07-24T03:52:04;19.90;1.00
22235;DHT22;11286;45.596;5.284;2022-07-24T03:54:30;19.90;1.00
22235;DHT22;11286;45.596;5.284;2022-07-24T03:56:55;19.80;1.00
22235;DHT22;11286;45.596;5.284;2022-07-24T03:59:21;20.00;1.00
22235;DHT22;11286;45.596;5.284;2022-07-24T04:01:47;20.00;1.00
22235;DHT22;11286;45.596;5.284;2022-07-24T04:04:12;20.10;1.00
22235;DHT22;11286;45.596;5.284;2022-07-24T04:06:38;20.10;1.00
22235;DHT22;11286;45.596;5.284;2022-07-24T04:09:06;20.20;1.00
22235;DHT22;11286;45.596;5.284;2022-07-24T04:11:31;20.30;1.00
22235;DHT22;11286;45.596;5.284;2022-07-24T04:13:57;20.00;1.00
22235;DHT22;11286;45.596;5.284;2022-07-24T04:16:23;20.00;1.00
22235;DHT22;11286;45.596;5.284;2022-07-24T04:18:48;19.90;1.00
22235;DHT22;11286;45.596;5.284;2022-07-24T04:21:14;19.90;1.00
22235;DHT22;11286;45.596;5.284;2022-07-24T04:23:40;19.90;1.00
22235;DHT22;11286;45.596;5.284;2022-07-24T04:26:05;19.80;1.00
22235;DHT22;11286;45.596;5.284;2022-07-24T04:28:31;19.80;1.00
22235;DHT22;11286;45.596;5.284;2022-07-24T04:30:56;19.70;1.00
22235;DHT22;11286;45.596;5.284;2022-07-24T04:33:22;19.80;1.00
22235;DHT22;11286;45.596;5.284;2022-07-24T04:35:48;19.70;1.00
22235;DHT22;11286;45.596;5.284;2022-07-24T04:38:14;19.70;1.00
22235;DHT22;11286;45.596;5.284;2022-07-24T04:40:40;19.80;1.00
22235;DHT22;11286;45.596;5.284;2022-07-24T04:43:06;19.90;1.00
22235;DHT22;11286;45.596;5.284;2022-07-24T04:45:32;19.90;1.00
22235;DHT22;11286;45.596;5.284;2022-07-24T04:47:57;19.90;1.00
22235;DHT22;11286;45.596;5.284;2022-07-24T04:50:23;20.00;1.00
22235;DHT22;11286;45.596;5.284;2022-07-24T04:52:49;20.00;1.00
22235;DHT22;11286;45.596;5.284;2022-07-24T04:55:14;20.20;1.00
22235;DHT22;11286;45.596;5.284;2022-07-24T04:57:40;20.10;1.00
22235;DHT22;11286;45.596;5.284;2022-07-24T05:00:09;20.00;1.00
22235;DHT22;11286;45.596;5.284;2022-07-24T05:02:35;20.00;1.00
22235;DHT22;11286;45.596;5.284;2022-07-24T05:05:01;19.90;1.00
22235;DHT22;11286;45.596;5.284;2022-07-24T05:07:26;19.90;1.00
22235;DHT22;11286;45.596;5.284;2022-07-24T05:09:52;19.90;1.00
22235;DHT22;11286;45.596;5.284;2022-07-24T05:12:18;19.90;1.00
22235;DHT22;11286;45.596;5.284;2022-07-24T05:14:43;19.90;1.00
22235;DHT22;11286;45.596;5.284;2022-07-24T05:17:09;19.90;1.00
22235;DHT22;11286;45.596;5.284;2022-07-24T05:19:34;20.00;1.00
22235;DHT22;11286;45.596;5.284;2022-07-24T05:22:00;20.10;1.00
22235;DHT22;11286;45.596;5.284;2022-07-24T05:24:26;20.10;1.00
22235;DHT22;11286;45.596;5.284;2022-07-24T05:26:52;20.20;1.00
22235;DHT22;11286;45.596;5.284;2022-07-24T05:29:18;20.30;1.00
22235;DHT22;11286;45.596;5.284;2022-07-24T05:31:43;20.30;1.00
22235;DHT22;11286;45.596;5.284;2022-07-24T05:34:09;20.30;1.00
22235;DHT22;11286;45.596;5.284;2022-07-24T05:36:35;20.20;1.00
22235;DHT22;11286;45.596;5.284;2022-07-24T05:39:01;20.30;1.00
22235;DHT22;11286;45.596;5.284;2022-07-24T05:41:27;20.50;1.00
22235;DHT22;11286;45.596;5.284;2022-07-24T05:43:52;20.70;1.00
22235;DHT22;11286;45.596;5.284;2022-07-24T05:46:19;20.90;1.00
22235;DHT22;11286;45.596;5.284;2022-07-24T05:48:45;20.90;1.00
22235;DHT22;11286;45.596;5.284;2022-07-24T05:51:11;20.80;1.00
22235;DHT22;11286;45.596;5.284;2022-07-24T05:53:37;21.00;1.00
22235;DHT22;11286;45.596;5.284;2022-07-24T05:56:03;21.00;1.00
22235;DHT22;11286;45.596;5.284;2022-07-24T05:58:29;21.20;1.00
22235;DHT22;11286;45.596;5.284;2022-07-24T06:00:55;21.20;1.00
22235;DHT22;11286;45.596;5.284;2022-07-24T06:03:20;21.20;1.00
22235;DHT22;11286;45.596;5.284;2022-07-24T06:05:46;21.20;1.00
22235;DHT22;11286;45.596;5.284;2022-07-24T06:08:12;21.30;1.00
22235;DHT22;11286;45.596;5.284;2022-07-24T06:10:37;21.40;1.00
22235;DHT22;11286;45.596;5.284;2022-07-24T06:13:03;21.60;1.00
22235;DHT22;11286;45.596;5.284;2022-07-24T06:15:29;21.60;1.00
22235;DHT22;11286;45.596;5.284;2022-07-24T06:17:55;21.60;1.00
22235;DHT22;11286;45.596;5.284;2022-07-24T06:20:20;21.80;1.00
22235;DHT22;11286;45.596;5.284;2022-07-24T06:22:46;21.90;1.00
22235;DHT22;11286;45.596;5.284;2022-07-24T06:25:12;22.00;1.00
22235;DHT22;11286;45.596;5.284;2022-07-24T06:27:46;22.00;1.00
22235;DHT22;11286;45.596;5.284;2022-07-24T06:30:16;22.00;1.00
22235;DHT22;11286;45.596;5.284;2022-07-24T06:32:43;22.10;1.00
22235;DHT22;11286;45.596;5.284;2022-07-24T06:35:10;22.40;1.00
22235;DHT22;11286;45.596;5.284;2022-07-24T06:37:35;22.50;1.00
22235;DHT22;11286;45.596;5.284;2022-07-24T06:40:01;22.50;1.00
22235;DHT22;11286;45.596;5.284;2022-07-24T06:42:27;22.50;1.00
22235;DHT22;11286;45.596;5.284;2022-07-24T06:44:53;22.60;1.00
22235;DHT22;11286;45.596;5.284;2022-07-24T06:47:18;22.60;1.00
22235;DHT22;11286;45.596;5.284;2022-07-24T06:49:44;22.70;1.00
22235;DHT22;11286;45.596;5.284;2022-07-24T06:52:09;22.80;1.00
22235;DHT22;11286;45.596;5.284;2022-07-24T06:54:35;22.90;1.00
22235;DHT22;11286;45.596;5.284;2022-07-24T06:57:01;22.90;1.00
22235;DHT22;11286;45.596;5.284;2022-07-24T06:59:27;23.10;1.00
22235;DHT22;11286;45.596;5.284;2022-07-24T07:01:52;23.30;1.00
22235;DHT22;11286;45.596;5.284;2022-07-24T07:04:18;23.50;1.00
22235;DHT22;11286;45.596;5.284;2022-07-24T07:06:43;23.50;1.00
22235;DHT22;11286;45.596;5.284;2022-07-24T07:09:09;23.40;1.00
22235;DHT22;11286;45.596;5.284;2022-07-24T07:11:35;23.30;1.00
22235;DHT22;11286;45.596;5.284;2022-07-24T07:14:00;23.30;1.00
22235;DHT22;11286;45.596;5.284;2022-07-24T07:16:27;23.40;1.00
22235;DHT22;11286;45.596;5.284;2022-07-24T07:18:53;23.30;1.00
22235;DHT22;11286;45.596;5.284;2022-07-24T07:21:18;23.30;1.00
22235;DHT22;11286;45.596;5.284;2022-07-24T07:23:44;23.40;1.00
22235;DHT22;11286;45.596;5.284;2022-07-24T07:26:10;23.50;1.00
22235;DHT22;11286;45.596;5.284;2022-07-24T07:28:35;23.70;1.00
22235;DHT22;11286;45.596;5.284;2022-07-24T07:31:01;23.70;1.00
22235;DHT22;11286;45.596;5.284;2022-07-24T07:33:27;23.80;1.00
22235;DHT22;11286;45.596;5.284;2022-07-24T07:35:53;23.70;1.00
22235;DHT22;11286;45.596;5.284;2022-07-24T07:38:19;23.80;1.00
22235;DHT22;11286;45.596;5.284;2022-07-24T07:40:44;23.80;1.00
22235;DHT22;11286;45.596;5.284;2022-07-24T07:43:10;23.80;1.00
22235;DHT22;11286;45.596;5.284;2022-07-24T07:45:36;24.00;1.00
22235;DHT22;11286;45.596;5.284;2022-07-24T07:48:01;23.90;1.00
22235;DHT22;11286;45.596;5.284;2022-07-24T07:50:27;24.10;1.00
22235;DHT22;11286;45.596;5.284;2022-07-24T07:52:53;24.20;1.00
22235;DHT22;11286;45.596;5.284;2022-07-24T07:55:19;24.30;1.00
22235;DHT22;11286;45.596;5.284;2022-07-24T07:57:45;24.30;1.00
22235;DHT22;11286;45.596;5.284;2022-07-24T08:00:11;24.30;1.00
22235;DHT22;11286;45.596;5.284;2022-07-24T08:02:37;24.60;1.00
22235;DHT22;11286;45.596;5.284;2022-07-24T08:05:03;24.60;1.00
22235;DHT22;11286;45.596;5.284;2022-07-24T08:07:29;24.70;1.00
22235;DHT22;11286;45.596;5.284;2022-07-24T08:09:55;24.90;1.00
22235;DHT22;11286;45.596;5.284;2022-07-24T08:12:20;24.90;1.00
22235;DHT22;11286;45.596;5.284;2022-07-24T08:14:46;25.00;1.00
22235;DHT22;11286;45.596;5.284;2022-07-24T08:17:11;25.10;1.00
22235;DHT22;11286;45.596;5.284;2022-07-24T08:19:37;25.00;1.00
22235;DHT22;11286;45.596;5.284;2022-07-24T08:22:03;24.90;1.00
22235;DHT22;11286;45.596;5.284;2022-07-24T08:24:30;25.10;1.00
22235;DHT22;11286;45.596;5.284;2022-07-24T08:26:58;25.20;1.00
22235;DHT22;11286;45.596;5.284;2022-07-24T08:29:24;25.30;1.00
22235;DHT22;11286;45.596;5.284;2022-07-24T08:31:50;25.50;1.00
22235;DHT22;11286;45.596;5.284;2022-07-24T08:34:15;25.30;1.00
22235;DHT22;11286;45.596;5.284;2022-07-24T08:36:41;25.40;1.00
22235;DHT22;11286;45.596;5.284;2022-07-24T08:39:11;25.30;1.00
22235;DHT22;11286;45.596;5.284;2022-07-24T08:41:37;25.40;1.00
22235;DHT22;11286;45.596;5.284;2022-07-24T08:44:03;25.60;1.00
22235;DHT22;11286;45.596;5.284;2022-07-24T08:46:31;25.80;1.00
22235;DHT22;11286;45.596;5.284;2022-07-24T08:48:57;26.00;1.00
22235;DHT22;11286;45.596;5.284;2022-07-24T08:51:22;25.90;1.00
22235;DHT22;11286;45.596;5.284;2022-07-24T08:53:48;26.00;1.00
22235;DHT22;11286;45.596;5.284;2022-07-24T08:56:16;26.10;1.00
22235;DHT22;11286;45.596;5.284;2022-07-24T08:58:41;26.40;1.00
22235;DHT22;11286;45.596;5.284;2022-07-24T09:01:07;26.30;1.00
22235;DHT22;11286;45.596;5.284;2022-07-24T09:03:41;26.20;1.00
22235;DHT22;11286;45.596;5.284;2022-07-24T09:06:09;26.30;1.00
22235;DHT22;11286;45.596;5.284;2022-07-24T09:08:36;26.30;1.00
22235;DHT22;11286;45.596;5.284;2022-07-24T09:11:03;26.40;1.00
22235;DHT22;11286;45.596;5.284;2022-07-24T09:13:31;26.40;1.00
22235;DHT22;11286;45.596;5.284;2022-07-24T09:16:21;26.70;1.00
22235;DHT22;11286;45.596;5.284;2022-07-24T09:18:48;26.70;1.00
22235;DHT22;11286;45.596;5.284;2022-07-24T09:21:16;26.60;1.00
22235;DHT22;11286;45.596;5.284;2022-07-24T09:23:43;26.60;1.00
22235;DHT22;11286;45.596;5.284;2022-07-24T09:26:09;26.60;1.00
22235;DHT22;11286;45.596;5.284;2022-07-24T09:28:52;26.80;1.00
22235;DHT22;11286;45.596;5.284;2022-07-24T09:31:18;27.10;1.00
22235;DHT22;11286;45.596;5.284;2022-07-24T09:33:47;26.90;1.00
22235;DHT22;11286;45.596;5.284;2022-07-24T09:36:14;27.00;1.00
22235;DHT22;11286;45.596;5.284;2022-07-24T09:38:50;27.10;1.00
22235;DHT22;11286;45.596;5.284;2022-07-24T09:41:23;27.10;1.00
22235;DHT22;11286;45.596;5.284;2022-07-24T09:44:00;27.40;1.00
22235;DHT22;11286;45.596;5.284;2022-07-24T09:46:27;27.70;1.00
22235;DHT22;11286;45.596;5.284;2022-07-24T09:48:55;27.80;1.00
22235;DHT22;11286;45.596;5.284;2022-07-24T09:51:23;27.70;1.00
22235;DHT22;11286;45.596;5.284;2022-07-24T09:53:54;27.90;1.00
22235;DHT22;11286;45.596;5.284;2022-07-24T09:56:20;27.80;1.00
22235;DHT22;11286;45.596;5.284;2022-07-24T10:01:13;27.70;1.00
22235;DHT22;11286;45.596;5.284;2022-07-24T10:03:42;27.70;1.00
22235;DHT22;11286;45.596;5.284;2022-07-24T10:06:10;27.80;1.00
22235;DHT22;11286;45.596;5.284;2022-07-24T10:08:37;27.90;1.00
22235;DHT22;11286;45.596;5.284;2022-07-24T10:11:03;28.00;1.00
22235;DHT22;11286;45.596;5.284;2022-07-24T10:13:29;27.90;1.00
22235;DHT22;11286;45.596;5.284;2022-07-24T10:26:42;28.40;1.00
22235;DHT22;11286;45.596;5.284;2022-07-24T10:29:19;28.60;1.00
22235;DHT22;11286;45.596;5.284;2022-07-24T10:31:47;28.70;1.00
22235;DHT22;11286;45.596;5.284;2022-07-24T10:42:31;28.80;1.00
22235;DHT22;11286;45.596;5.284;2022-07-24T10:45:15;29.00;1.00
22235;DHT22;11286;45.596;5.284;2022-07-24T10:47:43;29.10;1.00
22235;DHT22;11286;45.596;5.284;2022-07-24T10:50:08;29.30;1.00
22235;DHT22;11286;45.596;5.284;2022-07-24T10:52:34;29.00;1.00
22235;DHT22;11286;45.596;5.284;2022-07-24T10:55:25;29.10;1.00
22235;DHT22;11286;45.596;5.284;2022-07-24T11:00:38;29.20;1.00
22235;DHT22;11286;45.596;5.284;2022-07-24T11:03:29;29.40;1.00
22235;DHT22;11286;45.596;5.284;2022-07-24T11:06:10;29.60;1.00
22235;DHT22;11286;45.596;5.284;2022-07-24T11:08:40;29.80;1.00
22235;DHT22;11286;45.596;5.284;2022-07-24T11:11:18;29.70;1.00
22235;DHT22;11286;45.596;5.284;2022-07-24T11:13:55;29.50;1.00
22235;DHT22;11286;45.596;5.284;2022-07-24T11:16:29;29.60;1.00
22235;DHT22;11286;45.596;5.284;2022-07-24T11:21:38;30.00;1.00
22235;DHT22;11286;45.596;5.284;2022-07-24T11:31:55;30.60;1.00
22235;DHT22;11286;45.596;5.284;2022-07-24T11:34:22;30.70;1.00
22235;DHT22;11286;45.596;5.284;2022-07-24T11:36:49;31.20;1.00
22235;DHT22;11286;45.596;5.284;2022-07-24T11:39:17;31.60;1.00
22235;DHT22;11286;45.596;5.284;2022-07-24T11:41:52;32.40;1.00
22235;DHT22;11286;45.596;5.284;2022-07-24T11:44:24;35.00;1.00
22235;DHT22;11286;45.596;5.284;2022-07-24T11:46:50;37.10;1.00
22235;DHT22;11286;45.596;5.284;2022-07-24T11:49:16;38.80;1.00
22235;DHT22;11286;45.596;5.284;2022-07-24T11:51:47;39.40;1.00
22235;DHT22;11286;45.596;5.284;2022-07-24T11:54:14;39.80;1.00
22235;DHT22;11286;45.596;5.284;2022-07-24T11:56:40;40.40;1.00
22235;DHT22;11286;45.596;5.284;2022-07-24T11:59:27;40.40;1.00
22235;DHT22;11286;45.596;5.284;2022-07-24T12:04:29;41.60;1.00
22235;DHT22;11286;45.596;5.284;2022-07-24T12:06:54;41.80;1.00
22235;DHT22;11286;45.596;5.284;2022-07-24T12:09:20;41.60;1.00
22235;DHT22;11286;45.596;5.284;2022-07-24T12:11:46;41.80;1.00
22235;DHT22;11286;45.596;5.284;2022-07-24T12:14:16;43.20;1.00
22235;DHT22;11286;45.596;5.284;2022-07-24T12:16:43;43.00;1.00
22235;DHT22;11286;45.596;5.284;2022-07-24T12:19:20;43.60;1.00
22235;DHT22;11286;45.596;5.284;2022-07-24T12:21:47;44.30;1.00
22235;DHT22;11286;45.596;5.284;2022-07-24T12:24:13;45.40;1.00
22235;DHT22;11286;45.596;5.284;2022-07-24T12:27:08;45.60;1.00
22235;DHT22;11286;45.596;5.284;2022-07-24T12:29:41;45.50;1.00
22235;DHT22;11286;45.596;5.284;2022-07-24T12:32:15;44.30;1.00
22235;DHT22;11286;45.596;5.284;2022-07-24T12:34:47;45.00;1.00
22235;DHT22;11286;45.596;5.284;2022-07-24T12:37:20;45.60;1.00
22235;DHT22;11286;45.596;5.284;2022-07-24T12:39:50;45.50;1.00
22235;DHT22;11286;45.596;5.284;2022-07-24T12:42:17;44.90;1.00
22235;DHT22;11286;45.596;5.284;2022-07-24T12:44:44;45.00;1.00
22235;DHT22;11286;45.596;5.284;2022-07-24T12:47:11;45.40;1.00
22235;DHT22;11286;45.596;5.284;2022-07-24T12:49:42;45.50;1.00
22235;DHT22;11286;45.596;5.284;2022-07-24T12:52:23;45.50;1.00
22235;DHT22;11286;45.596;5.284;2022-07-24T12:54:50;45.30;1.00
22235;DHT22;11286;45.596;5.284;2022-07-24T12:57:16;45.30;1.00
22235;DHT22;11286;45.596;5.284;2022-07-24T12:59:46;44.70;1.00
22235;DHT22;11286;45.596;5.284;2022-07-24T13:02:15;44.00;1.00
22235;DHT22;11286;45.596;5.284;2022-07-24T13:04:46;43.60;1.00
22235;DHT22;11286;45.596;5.284;2022-07-24T13:07:13;43.60;1.00
22235;DHT22;11286;45.596;5.284;2022-07-24T13:09:40;43.30;1.00
22235;DHT22;11286;45.596;5.284;2022-07-24T13:12:07;43.20;1.00
22235;DHT22;11286;45.596;5.284;2022-07-24T13:14:33;43.00;1.00
22235;DHT22;11286;45.596;5.284;2022-07-24T13:17:08;42.70;1.00
22235;DHT22;11286;45.596;5.284;2022-07-24T13:19:40;43.00;1.00
22235;DHT22;11286;45.596;5.284;2022-07-24T13:22:06;42.70;1.00
22235;DHT22;11286;45.596;5.284;2022-07-24T13:24:32;41.80;1.00
22235;DHT22;11286;45.596;5.284;2022-07-24T13:27:02;42.60;1.00
22235;DHT22;11286;45.596;5.284;2022-07-24T13:29:27;42.80;1.00
22235;DHT22;11286;45.596;5.284;2022-07-24T13:31:53;43.10;1.00
22235;DHT22;11286;45.596;5.284;2022-07-24T13:34:19;43.40;1.00
22235;DHT22;11286;45.596;5.284;2022-07-24T13:36:45;42.40;1.00
22235;DHT22;11286;45.596;5.284;2022-07-24T13:39:12;42.00;1.00
22235;DHT22;11286;45.596;5.284;2022-07-24T13:41:38;42.30;1.00
22235;DHT22;11286;45.596;5.284;2022-07-24T13:44:04;42.50;1.00
22235;DHT22;11286;45.596;5.284;2022-07-24T13:46:31;42.10;1.00
22235;DHT22;11286;45.596;5.284;2022-07-24T13:48:59;42.10;1.00
22235;DHT22;11286;45.596;5.284;2022-07-24T13:51:24;42.20;1.00
22235;DHT22;11286;45.596;5.284;2022-07-24T13:53:50;41.00;1.00
22235;DHT22;11286;45.596;5.284;2022-07-24T13:56:16;41.70;1.00
22235;DHT22;11286;45.596;5.284;2022-07-24T13:58:42;42.00;1.00
22235;DHT22;11286;45.596;5.284;2022-07-24T14:01:09;42.30;1.00
22235;DHT22;11286;45.596;5.284;2022-07-24T14:03:35;42.10;1.00
22235;DHT22;11286;45.596;5.284;2022-07-24T14:06:02;41.80;1.00
22235;DHT22;11286;45.596;5.284;2022-07-24T14:08:28;41.80;1.00
22235;DHT22;11286;45.596;5.284;2022-07-24T14:10:54;42.40;1.00
22235;DHT22;11286;45.596;5.284;2022-07-24T14:13:20;42.00;1.00
22235;DHT22;11286;45.596;5.284;2022-07-24T14:15:46;41.80;1.00
22235;DHT22;11286;45.596;5.284;2022-07-24T14:18:12;41.60;1.00
22235;DHT22;11286;45.596;5.284;2022-07-24T14:20:38;41.50;1.00
22235;DHT22;11286;45.596;5.284;2022-07-24T14:23:04;41.60;1.00
22235;DHT22;11286;45.596;5.284;2022-07-24T14:25:29;41.50;1.00
22235;DHT22;11286;45.596;5.284;2022-07-24T14:27:55;41.20;1.00
22235;DHT22;11286;45.596;5.284;2022-07-24T14:30:22;41.60;1.00
22235;DHT22;11286;45.596;5.284;2022-07-24T14:32:48;41.80;1.00
22235;DHT22;11286;45.596;5.284;2022-07-24T14:35:13;41.80;1.00
22235;DHT22;11286;45.596;5.284;2022-07-24T14:37:39;41.90;1.00
22235;DHT22;11286;45.596;5.284;2022-07-24T14:40:07;41.60;1.00
22235;DHT22;11286;45.596;5.284;2022-07-24T14:42:33;41.50;1.00
22235;DHT22;11286;45.596;5.284;2022-07-24T14:44:59;41.10;1.00
22235;DHT22;11286;45.596;5.284;2022-07-24T14:47:25;41.20;1.00
22235;DHT22;11286;45.596;5.284;2022-07-24T14:49:51;41.20;1.00
22235;DHT22;11286;45.596;5.284;2022-07-24T14:52:17;41.10;1.00
22235;DHT22;11286;45.596;5.284;2022-07-24T14:54:46;41.20;1.00
22235;DHT22;11286;45.596;5.284;2022-07-24T14:57:12;41.40;1.00
22235;DHT22;11286;45.596;5.284;2022-07-24T14:59:38;40.80;1.00
22235;DHT22;11286;45.596;5.284;2022-07-24T15:02:03;40.40;1.00
22235;DHT22;11286;45.596;5.284;2022-07-24T15:04:29;40.50;1.00
22235;DHT22;11286;45.596;5.284;2022-07-24T15:06:55;40.60;1.00
22235;DHT22;11286;45.596;5.284;2022-07-24T15:09:20;41.00;1.00
22235;DHT22;11286;45.596;5.284;2022-07-24T15:11:46;41.10;1.00
22235;DHT22;11286;45.596;5.284;2022-07-24T15:14:12;40.70;1.00
22235;DHT22;11286;45.596;5.284;2022-07-24T15:16:37;40.70;1.00
22235;DHT22;11286;45.596;5.284;2022-07-24T15:19:03;40.60;1.00
22235;DHT22;11286;45.596;5.284;2022-07-24T15:21:29;40.90;1.00
22235;DHT22;11286;45.596;5.284;2022-07-24T15:23:55;40.60;1.00
22235;DHT22;11286;45.596;5.284;2022-07-24T15:26:21;40.70;1.00
22235;DHT22;11286;45.596;5.284;2022-07-24T15:28:46;40.10;1.00
22235;DHT22;11286;45.596;5.284;2022-07-24T15:31:12;40.00;1.00
22235;DHT22;11286;45.596;5.284;2022-07-24T15:33:45;39.80;1.00
22235;DHT22;11286;45.596;5.284;2022-07-24T15:36:11;39.60;1.00
22235;DHT22;11286;45.596;5.284;2022-07-24T15:38:36;39.30;1.00
22235;DHT22;11286;45.596;5.284;2022-07-24T15:41:03;39.40;1.00
22235;DHT22;11286;45.596;5.284;2022-07-24T15:43:29;39.90;1.00
22235;DHT22;11286;45.596;5.284;2022-07-24T15:45:54;40.00;1.00
22235;DHT22;11286;45.596;5.284;2022-07-24T15:48:20;40.40;1.00
22235;DHT22;11286;45.596;5.284;2022-07-24T15:50:46;40.30;1.00
22235;DHT22;11286;45.596;5.284;2022-07-24T15:53:12;40.00;1.00
22235;DHT22;11286;45.596;5.284;2022-07-24T15:55:37;39.40;1.00
22235;DHT22;11286;45.596;5.284;2022-07-24T15:58:03;39.40;1.00
22235;DHT22;11286;45.596;5.284;2022-07-24T16:00:29;39.20;1.00
22235;DHT22;11286;45.596;5.284;2022-07-24T16:02:54;39.20;1.00
22235;DHT22;11286;45.596;5.284;2022-07-24T16:05:20;39.20;1.00
22235;DHT22;11286;45.596;5.284;2022-07-24T16:07:49;38.90;1.00
22235;DHT22;11286;45.596;5.284;2022-07-24T16:10:14;38.90;1.00
22235;DHT22;11286;45.596;5.284;2022-07-24T16:12:42;38.80;1.00
22235;DHT22;11286;45.596;5.284;2022-07-24T16:15:08;38.60;1.00
22235;DHT22;11286;45.596;5.284;2022-07-24T16:17:33;38.50;1.00
22235;DHT22;11286;45.596;5.284;2022-07-24T16:19:59;38.90;1.00